Time;durP1;ratioP1;P1;durP2;ratioP2;P2;SDS_P1;SDS_P2;PMS_P1;PMS_P2;Temp;Humidity;BMP_temperature;BMP_pressure;BME280_temperature;BME280_humidity;BME280_pressure;Samples;Min_cycle;Max_cycle;Signal;HPM_P1;HPM_P2
2022/04/01 00:01:59;;;;;;;16.98;6.20;;;;;;;0.84;90.26;100083.00;5039854;28;20032;-73
2022/04/01 00:04:24;;;;;;;17.30;6.05;;;;;;;0.82;89.97;100080.44;5042124;28;20033;-72
2022/04/01 00:06:49;;;;;;;15.73;4.88;;;;;;;0.80;90.18;100087.56;5041370;28;20378;-73
2022/04/01 00:09:14;;;;;;;15.82;5.90;;;;;;;0.80;90.76;100084.91;5041868;28;20029;-73
2022/04/01 00:11:40;;;;;;;15.35;5.32;;;;;;;0.78;89.96;100083.31;5042666;28;20047;-73
2022/04/01 00:14:05;;;;;;;15.23;4.65;;;;;;;0.77;90.31;100087.72;5042365;28;20040;-73
2022/04/01 00:16:31;;;;;;;13.43;4.32;;;;;;;0.74;90.63;100092.28;5040933;28;20076;-73
2022/04/01 00:18:57;;;;;;;13.88;5.15;;;;;;;0.75;90.40;100094.00;5041750;28;20513;-73
2022/04/01 00:21:23;;;;;;;12.65;4.40;;;;;;;0.74;90.45;100093.13;5042288;28;20048;-73
2022/04/01 00:23:48;;;;;;;17.50;5.28;;;;;;;0.69;90.84;100103.94;5039249;28;20616;-73
2022/04/01 00:26:13;;;;;;;13.95;4.38;;;;;;;0.65;91.02;100099.69;5039810;28;20101;-73
2022/04/01 00:28:38;;;;;;;15.52;4.75;;;;;;;0.63;90.71;100101.56;5042437;28;20025;-73
2022/04/01 00:31:04;;;;;;;11.27;3.80;;;;;;;0.64;91.13;100103.25;5040384;28;20049;-73
2022/04/01 00:33:29;;;;;;;13.48;4.55;;;;;;;0.66;91.19;100096.13;5042207;28;21308;-73
2022/04/01 00:35:54;;;;;;;14.15;4.65;;;;;;;0.64;89.80;100107.69;5040673;28;20064;-73
2022/04/01 00:38:20;;;;;;;16.38;5.03;;;;;;;0.61;90.39;100106.03;5040342;28;20032;-73
2022/04/01 00:40:46;;;;;;;13.82;4.70;;;;;;;0.56;90.26;100107.16;5040930;28;20064;-73
2022/04/01 00:43:11;;;;;;;13.57;4.63;;;;;;;0.52;90.69;100109.94;5041506;28;20057;-73
2022/04/01 00:45:37;;;;;;;14.60;4.78;;;;;;;0.52;90.78;100117.03;5041621;28;20119;-73
2022/04/01 00:48:03;;;;;;;15.77;4.53;;;;;;;0.44;91.02;100117.38;5041950;28;20041;-73
2022/04/01 00:50:30;;;;;;;14.27;4.32;;;;;;;0.39;90.93;100107.91;5041915;28;20041;-73
2022/04/01 00:52:55;;;;;;;13.30;4.45;;;;;;;0.39;91.83;100121.13;5039637;28;20793;-73
2022/04/01 00:55:21;;;;;;;19.33;5.72;;;;;;;0.36;91.82;100119.47;5041857;28;20036;-73
2022/04/01 00:57:46;;;;;;;14.80;4.43;;;;;;;0.36;92.05;100121.28;5041976;28;20064;-73
2022/04/01 01:00:12;;;;;;;14.55;4.28;;;;;;;0.34;91.76;100119.53;5040265;28;20037;-73
2022/04/01 01:02:39;;;;;;;13.82;4.75;;;;;;;0.37;91.83;100120.31;5041600;28;20036;-73
2022/04/01 01:05:05;;;;;;;14.25;4.55;;;;;;;0.33;91.53;100131.03;5038493;28;20431;-73
2022/04/01 01:07:30;;;;;;;15.57;4.65;;;;;;;0.37;92.04;100121.19;5040303;28;20057;-73
2022/04/01 01:09:55;;;;;;;13.18;4.35;;;;;;;0.37;91.87;100125.59;5041232;28;20044;-73
2022/04/01 01:12:21;;;;;;;13.88;4.35;;;;;;;0.40;92.03;100125.50;5040854;28;20036;-73
2022/04/01 01:14:46;;;;;;;14.80;4.28;;;;;;;0.40;92.23;100130.78;5040642;28;20039;-73
2022/04/01 01:17:12;;;;;;;14.95;4.30;;;;;;;0.39;91.70;100119.34;5041603;28;20039;-73
2022/04/01 01:19:39;;;;;;;13.30;4.10;;;;;;;0.37;91.97;100128.25;5040850;28;20032;-73
2022/04/01 01:22:05;;;;;;;12.00;4.32;;;;;;;0.34;92.12;100127.47;5041318;28;20044;-73
2022/04/01 01:24:32;;;;;;;15.80;4.57;;;;;;;0.34;91.98;100127.47;5039993;28;20751;-73
2022/04/01 01:26:58;;;;;;;11.98;3.83;;;;;;;0.33;91.95;100131.03;5038519;28;20124;-73
2022/04/01 01:29:32;;;;;;;16.08;4.20;;;;;;;0.32;91.94;100123.16;5041156;28;20051;-73
2022/04/01 01:32:00;;;;;;;14.18;4.40;;;;;;;0.31;92.08;100127.59;5041403;28;20059;-73
2022/04/01 01:34:27;;;;;;;11.65;3.80;;;;;;;0.33;92.42;100128.38;5038928;28;20017;-73
2022/04/01 01:36:53;;;;;;;9.35;3.58;;;;;;;0.31;92.38;100126.75;5041023;28;20063;-73
2022/04/01 01:39:20;;;;;;;11.15;4.20;;;;;;;0.23;92.03;100129.69;5040592;28;20037;-73
2022/04/01 01:41:46;;;;;;;11.10;4.15;;;;;;;0.23;92.48;100128.84;5040794;28;20396;-73
2022/04/01 01:44:13;;;;;;;16.05;4.72;;;;;;;0.19;92.78;100132.53;5039296;28;20439;-73
2022/04/01 01:46:38;;;;;;;14.70;4.63;;;;;;;0.21;93.34;100136.84;5040179;28;20028;-73
2022/04/01 01:49:04;;;;;;;14.55;4.70;;;;;;;0.22;93.06;100130.66;5038611;28;20574;-73
2022/04/01 01:56:59;;;;;;;14.88;4.15;;;;;;;0.20;92.59;100145.69;5040449;28;20056;-73
2022/04/01 01:59:25;;;;;;;13.90;3.97;;;;;;;0.19;92.60;100145.75;5040026;28;20108;-73
2022/04/01 02:01:50;;;;;;;14.70;4.35;;;;;;;0.22;92.80;100151.78;5038610;28;20128;-73
2022/04/01 02:04:15;;;;;;;13.50;4.35;;;;;;;0.22;92.82;100153.56;5038368;28;20580;-73
2022/04/01 02:06:41;;;;;;;13.20;4.75;;;;;;;0.20;92.54;100150.97;5039821;28;20466;-73
2022/04/01 02:09:06;;;;;;;12.88;4.88;;;;;;;0.23;92.80;100150.84;5040302;28;20511;-73
2022/04/01 02:11:31;;;;;;;13.20;5.05;;;;;;;0.25;92.38;100140.19;5038989;28;20047;-73
2022/04/01 02:13:57;;;;;;;11.75;3.75;;;;;;;0.22;92.20;100148.25;5038589;28;20112;-73
2022/04/01 02:16:22;;;;;;;14.38;4.85;;;;;;;0.22;92.00;100146.50;5039817;28;20091;-73
2022/04/01 02:18:49;;;;;;;14.88;4.97;;;;;;;0.22;91.67;100151.78;5039756;28;20036;-73
2022/04/01 02:21:15;;;;;;;12.65;4.55;;;;;;;0.23;91.82;100156.13;5038971;28;20496;-74
2022/04/01 02:23:46;;;;;;;14.05;4.63;;;;;;;0.21;91.58;100165.91;5038381;28;20040;-73
2022/04/01 02:26:12;;;;;;;13.75;4.70;;;;;;;0.21;91.60;100163.28;5039868;28;20036;-73
2022/04/01 02:28:39;;;;;;;14.63;4.40;;;;;;;0.22;92.05;100166.75;5040067;28;20871;-73
2022/04/01 02:31:05;;;;;;;12.68;4.30;;;;;;;0.20;91.72;100165.97;5039881;28;20500;-74
2022/04/01 02:33:31;;;;;;;14.52;4.35;;;;;;;0.20;92.07;100171.25;5040110;28;20045;-73
2022/04/01 02:36:00;;;;;;;12.10;4.30;;;;;;;0.22;92.03;100175.56;5038474;28;20031;-73
2022/04/01 02:38:27;;;;;;;11.85;4.18;;;;;;;0.22;91.74;100177.34;5039635;28;20021;-73
2022/04/01 02:40:53;;;;;;;13.80;5.13;;;;;;;0.21;91.91;100184.41;5039769;28;20033;-73
2022/04/01 02:43:19;;;;;;;12.88;4.03;;;;;;;0.22;91.56;100182.63;5039152;28;20343;-73
2022/04/01 02:45:48;;;;;;;16.23;5.13;;;;;;;0.22;90.90;100187.91;5040211;28;20039;-73
2022/04/01 02:48:14;;;;;;;12.93;4.50;;;;;;;0.21;90.93;100184.41;5039342;28;20039;-73
2022/04/01 02:50:39;;;;;;;11.85;4.38;;;;;;;0.22;91.16;100180.84;5039664;28;20510;-73
2022/04/01 02:53:05;;;;;;;14.13;3.83;;;;;;;0.24;91.93;100186.94;5039640;28;20021;-73
2022/04/01 02:55:30;;;;;;;12.95;4.28;;;;;;;0.21;91.81;100197.63;5038755;28;20115;-73
2022/04/01 02:57:55;;;;;;;14.82;4.50;;;;;;;0.22;92.41;100196.72;5038356;28;20033;-73
2022/04/01 03:00:23;;;;;;;13.98;4.53;;;;;;;0.21;92.22;100204.72;5039723;28;20066;-73
2022/04/01 03:02:48;;;;;;;14.52;4.45;;;;;;;0.20;92.48;100202.97;5039659;28;20064;-73
2022/04/01 03:05:14;;;;;;;16.55;4.80;;;;;;;0.16;92.77;100207.50;5018140;28;20155;-73
2022/04/01 03:07:39;;;;;;;12.50;4.47;;;;;;;0.16;92.58;100204.88;5037760;28;20401;-73
2022/04/01 03:10:05;;;;;;;13.77;4.38;;;;;;;0.16;92.73;100212.78;5038926;28;20032;-73
2022/04/01 03:12:30;;;;;;;13.00;4.72;;;;;;;0.16;92.74;100208.38;5038154;28;20399;-73
2022/04/01 03:14:56;;;;;;;15.90;5.43;;;;;;;0.19;92.59;100211.81;5038625;28;20056;-73
2022/04/01 03:17:22;;;;;;;15.27;5.07;;;;;;;0.15;93.02;100208.44;5037962;28;20036;-73
2022/04/01 03:19:48;;;;;;;14.77;5.22;;;;;;;0.13;93.00;100213.81;5038750;28;20025;-73
2022/04/01 03:22:13;;;;;;;16.08;5.13;;;;;;;0.09;92.73;100221.88;5039609;28;20021;-73
2022/04/01 03:24:39;;;;;;;15.10;5.35;;;;;;;0.06;92.57;100224.66;5037045;28;20055;-73
2022/04/01 03:27:04;;;;;;;17.40;6.32;;;;;;;0.03;93.48;100227.41;5038012;28;20068;-73
2022/04/01 03:29:32;;;;;;;17.17;5.68;;;;;;;0.01;92.93;100231.91;5039149;28;20491;-73
2022/04/01 03:31:57;;;;;;;17.73;5.65;;;;;;;-0.02;93.54;100231.09;5040222;28;20039;-73
2022/04/01 03:34:23;;;;;;;16.85;6.25;;;;;;;-0.02;93.62;100241.66;5041856;28;20103;-73
2022/04/01 03:36:48;;;;;;;17.70;5.95;;;;;;;-0.02;94.05;100246.09;5042016;28;20017;-73
2022/04/01 03:39:14;;;;;;;17.08;5.78;;;;;;;-0.07;94.54;100235.72;5041289;28;20032;-73
2022/04/01 03:41:39;;;;;;;17.92;5.63;;;;;;;-0.06;94.86;100239.22;5043091;28;20033;-73
2022/04/01 03:44:05;;;;;;;16.60;5.63;;;;;;;-0.09;94.75;100237.56;5043321;28;20086;-73
2022/04/01 03:46:46;;;;;;;16.98;5.80;;;;;;;-0.07;95.12;100242.78;5041321;28;20664;-73
2022/04/01 03:49:17;;;;;;;16.95;5.95;;;;;;;-0.10;94.67;100249.06;5042472;28;20036;-73
2022/04/01 03:51:47;;;;;;;17.60;6.10;;;;;;;-0.14;94.75;100244.81;5042903;28;21102;-73
2022/04/01 03:54:12;;;;;;;;;;;;;;;-0.10;94.93;100246.41;5041759;28;20123;-73
2022/04/01 03:56:38;;;;;;;17.33;5.95;;;;;;;-0.12;95.41;100250.88;5041654;28;19996;-73
2022/04/01 03:59:07;;;;;;;19.77;6.70;;;;;;;-0.17;95.72;100252.84;5041319;28;20025;-73
2022/04/01 04:01:34;;;;;;;18.10;6.00;;;;;;;-0.19;95.95;100254.66;5041882;28;20032;-73
2022/04/01 04:04:01;;;;;;;17.83;6.45;;;;;;;-0.20;95.72;100267.03;5041052;28;20029;-73
2022/04/01 04:06:27;;;;;;;17.92;6.28;;;;;;;-0.24;96.57;100265.41;5041185;28;20041;-73
2022/04/01 04:09:03;;;;;;;20.63;6.18;;;;;;;-0.23;96.26;100266.28;5042256;28;20025;-73
2022/04/01 04:11:32;;;;;;;18.75;5.97;;;;;;;-0.22;96.03;100268.00;5042286;28;20056;-73
2022/04/01 04:13:59;;;;;;;18.88;6.45;;;;;;;-0.20;96.78;100266.19;5042288;28;20024;-73
2022/04/01 04:16:45;;;;;;;15.82;6.03;;;;;;;-0.21;96.14;100275.84;5041757;28;20065;-73
2022/04/01 04:19:24;;;;;;;18.23;6.25;;;;;;;-0.20;96.51;100282.03;5040522;28;20084;-73
2022/04/01 04:21:57;;;;;;;15.93;4.97;;;;;;;-0.26;96.14;100284.91;5042336;28;20397;-73
2022/04/01 04:24:53;;;;;;;19.63;6.80;;;;;;;-0.25;96.42;100289.25;5041327;28;20040;-73
2022/04/01 04:27:26;;;;;;;18.35;5.93;;;;;;;-0.29;96.89;100299.06;5030706;28;20102;-73
2022/04/01 04:29:52;;;;;;;16.65;5.78;;;;;;;-0.26;96.74;100306.88;5042040;28;20416;-73
2022/04/01 04:32:25;;;;;;;18.35;6.03;;;;;;;-0.28;97.02;100306.09;5040022;28;20035;-73
2022/04/01 04:34:51;;;;;;;20.00;6.30;;;;;;;-0.28;96.56;100305.19;5041595;28;20065;-73
2022/04/01 04:37:21;;;;;;;18.15;6.07;;;;;;;-0.26;96.92;100306.88;5040693;28;20029;-73
2022/04/01 04:39:48;;;;;;;16.40;5.57;;;;;;;-0.23;96.50;100313.81;5039779;28;20154;-72
2022/04/01 04:42:15;;;;;;;17.27;5.57;;;;;;;-0.24;96.30;100310.31;5040051;28;20036;-73
2022/04/01 04:44:44;;;;;;;17.50;5.63;;;;;;;-0.23;95.81;100321.75;5040657;28;20055;-73
2022/04/01 04:47:11;;;;;;;17.17;6.18;;;;;;;-0.24;95.77;100331.44;5041844;28;20037;-73
2022/04/01 04:49:36;;;;;;;16.98;5.70;;;;;;;-0.24;95.33;100330.59;5041054;28;20025;-74
2022/04/01 04:52:02;;;;;;;18.40;5.88;;;;;;;-0.25;95.51;100334.13;5041821;28;20036;-73
2022/04/01 04:54:28;;;;;;;21.15;6.15;;;;;;;-0.25;95.40;100344.69;5034644;28;20083;-73
2022/04/01 04:56:54;;;;;;;17.75;6.07;;;;;;;-0.28;94.89;100350.97;5041800;28;20039;-73
2022/04/01 04:59:21;;;;;;;18.48;6.07;;;;;;;-0.29;94.73;100345.72;5040673;28;20025;-73
2022/04/01 05:01:58;;;;;;;19.70;7.10;;;;;;;-0.25;94.91;100355.25;5041604;28;20120;-73
2022/04/01 05:05:02;;;;;;;18.55;7.00;;;;;;;-0.22;95.09;100358.66;5040898;28;20037;-73
2022/04/01 05:07:32;;;;;;;16.92;6.07;;;;;;;-0.22;94.07;100363.94;4959659;28;20050;-73
2022/04/01 05:10:27;;;;;;;16.48;5.30;;;;;;;-0.20;94.11;100370.03;4960145;28;20054;-73
2022/04/01 05:13:28;;;;;;;18.75;5.60;;;;;;;-0.14;93.64;100376.88;4948771;28;20141;-73
2022/04/01 05:15:56;;;;;;;19.10;6.32;;;;;;;-0.16;92.89;100380.47;4907533;29;20048;-73
2022/04/01 05:18:30;;;;;;;16.73;5.80;;;;;;;-0.18;92.44;100383.16;4913078;29;20048;-73
2022/04/01 05:20:59;;;;;;;16.27;5.25;;;;;;;-0.17;92.30;100384.06;4913295;29;20165;-73
2022/04/01 05:23:59;;;;;;;16.20;5.80;;;;;;;-0.15;91.76;100388.34;4912581;29;20140;-73
2022/04/01 05:26:38;;;;;;;;;;;;;;;-0.11;91.84;100384.66;4913083;29;20079;-73
2022/04/01 05:29:07;;;;;;;15.90;4.97;;;;;;;-0.14;91.25;100390.06;4896883;29;19930;-74
2022/04/01 05:31:37;;;;;;;18.17;5.40;;;;;;;-0.14;91.02;100394.50;4910124;29;20047;-73
2022/04/01 05:34:20;;;;;;;;;;;;;;;-0.12;90.44;100393.50;4895239;29;20643;-73
2022/04/01 05:36:46;;;;;;;17.42;5.32;;;;;;;-0.16;91.02;100396.31;4889150;29;19923;-73
2022/04/01 05:39:12;;;;;;;18.75;5.22;;;;;;;-0.14;91.28;100405.06;4896689;29;20488;-73
2022/04/01 05:41:39;;;;;;;19.13;5.85;;;;;;;-0.16;90.81;100402.47;4957762;28;20046;-72
2022/04/01 05:44:05;;;;;;;16.30;5.43;;;;;;;-0.15;90.32;100420.03;4975267;28;20387;-73
2022/04/01 05:46:31;;;;;;;16.77;4.88;;;;;;;-0.13;90.83;100423.50;4988573;28;20034;-73
2022/04/01 05:48:58;;;;;;;17.17;5.93;;;;;;;-0.13;90.41;100427.91;4989973;28;20034;-74
2022/04/01 05:51:25;;;;;;;17.65;5.60;;;;;;;-0.15;89.89;100433.25;4973724;28;20405;-74
2022/04/01 05:53:52;;;;;;;17.08;5.32;;;;;;;-0.16;89.83;100425.38;5047330;28;20040;-73
2022/04/01 05:56:17;;;;;;;16.00;4.78;;;;;;;-0.13;90.30;100449.03;5051812;28;20028;-73
2022/04/01 05:58:43;;;;;;;15.75;5.03;;;;;;;-0.12;89.66;100446.34;5049601;28;20024;-73
2022/04/01 06:01:12;;;;;;;16.35;5.70;;;;;;;-0.12;89.55;100438.41;5044304;28;20132;-73
2022/04/01 06:04:14;;;;;;;13.85;4.85;;;;;;;-0.11;89.54;100458.63;5050403;28;20720;-74
2022/04/01 06:06:41;;;;;;;18.85;6.50;;;;;;;-0.13;89.38;100465.75;5048541;28;20052;-73
2022/04/01 06:09:34;;;;;;;17.67;6.10;;;;;;;-0.13;89.16;100473.69;5051470;28;20032;-73
2022/04/01 06:12:21;;;;;;;17.70;5.70;;;;;;;-0.14;89.37;100471.94;5050338;28;20059;-74
2022/04/01 06:15:00;;;;;;;19.85;6.30;;;;;;;-0.11;89.70;100471.00;5051376;28;20047;-74
2022/04/01 06:18:03;;;;;;;15.75;5.28;;;;;;;-0.08;89.64;100492.84;5050989;28;20024;-74
2022/04/01 06:20:37;;;;;;;16.05;5.38;;;;;;;-0.10;88.97;100491.19;5037232;28;20119;-74
2022/04/01 06:23:07;;;;;;;15.23;5.15;;;;;;;-0.10;89.03;100497.34;5050459;28;20017;-75
2022/04/01 06:25:38;;;;;;;17.17;6.22;;;;;;;-0.10;88.96;100492.06;5051269;28;20082;-74
2022/04/01 06:28:16;;;;;;;17.67;5.53;;;;;;;-0.09;88.61;100504.38;5051102;28;20417;-74
2022/04/01 06:30:43;;;;;;;18.00;5.68;;;;;;;-0.07;89.02;100507.81;5051365;28;20041;-74
2022/04/01 06:33:47;;;;;;;15.98;5.20;;;;;;;-0.04;88.94;100512.13;5048002;28;20400;-76
2022/04/01 06:36:18;;;;;;;16.88;4.93;;;;;;;-0.07;87.95;100520.16;5042898;28;20059;-78
2022/04/01 06:39:01;;;;;;;16.70;5.13;;;;;;;-0.09;88.19;100533.44;5040144;28;20037;-74
2022/04/01 06:41:35;;;;;;;15.60;5.45;;;;;;;-0.09;88.78;100528.13;5048392;28;20028;-73
2022/04/01 06:44:01;;;;;;;15.70;4.95;;;;;;;-0.13;88.69;100529.16;5036117;28;20033;-73
2022/04/01 06:46:26;;;;;;;14.90;5.82;;;;;;;-0.15;88.59;100533.59;5044545;28;20055;-73
2022/04/01 06:48:52;;;;;;;15.35;4.40;;;;;;;-0.18;88.12;100546.91;5044246;28;20030;-73
2022/04/01 06:51:17;;;;;;;16.80;4.95;;;;;;;-0.17;88.54;100542.53;5050782;28;20025;-78
2022/04/01 06:53:42;;;;;;;14.98;4.95;;;;;;;-0.17;87.74;100553.09;5049265;28;20360;-75
2022/04/01 06:56:10;;;;;;;12.75;4.20;;;;;;;-0.16;87.95;100550.41;5045697;28;20078;-75
2022/04/01 06:58:36;;;;;;;16.77;5.05;;;;;;;-0.12;88.58;100553.78;5048872;28;20116;-75
2022/04/01 07:01:02;;;;;;;14.35;4.28;;;;;;;-0.12;87.74;100559.06;5047165;28;20482;-75
2022/04/01 07:03:28;;;;;;;13.35;3.90;;;;;;;-0.15;87.01;100560.03;5049039;28;20037;-75
2022/04/01 07:05:53;;;;;;;14.90;4.50;;;;;;;-0.16;87.55;100560.97;5047471;28;20059;-75
2022/04/01 07:08:19;;;;;;;14.10;4.03;;;;;;;-0.14;87.64;100561.75;5052794;28;20464;-74
2022/04/01 07:10:48;;;;;;;15.85;3.63;;;;;;;-0.13;87.57;100555.56;5051937;28;20032;-74
2022/04/01 07:13:14;;;;;;;12.90;4.70;;;;;;;-0.10;87.02;100565.16;5050826;28;20492;-75
2022/04/01 07:15:39;;;;;;;13.05;4.30;;;;;;;-0.10;86.28;100560.75;5052377;28;20052;-74
2022/04/01 07:18:06;;;;;;;12.57;4.03;;;;;;;-0.09;86.34;100570.41;5034963;28;20059;-74
2022/04/01 07:20:31;;;;;;;13.27;4.20;;;;;;;-0.09;86.19;100586.25;5052834;28;20087;-74
2022/04/01 07:22:56;;;;;;;13.48;4.53;;;;;;;-0.06;86.60;100577.34;5051510;28;20068;-73
2022/04/01 07:25:23;;;;;;;13.65;4.45;;;;;;;-0.08;86.22;100584.47;5049503;28;20640;-74
2022/04/01 07:27:53;;;;;;;14.25;4.28;;;;;;;-0.06;86.61;100586.16;5051146;28;20041;-74
2022/04/01 07:30:19;;;;;;;15.20;4.35;;;;;;;-0.06;86.87;100594.06;5053068;28;20047;-74
2022/04/01 07:32:44;;;;;;;12.80;4.57;;;;;;;-0.08;85.59;100597.69;5050550;28;20035;-73
2022/04/01 07:35:14;;;;;;;13.75;4.22;;;;;;;-0.08;86.32;100601.16;5052373;28;20114;-73
2022/04/01 07:37:46;;;;;;;14.25;4.80;;;;;;;-0.06;86.11;100609.03;5052167;28;20029;-73
2022/04/01 07:40:13;;;;;;;15.80;5.25;;;;;;;-0.08;86.58;100601.16;5052586;28;20438;-74
2022/04/01 07:42:39;;;;;;;13.00;4.15;;;;;;;-0.04;86.67;100613.38;5032568;28;20037;-74
2022/04/01 07:45:05;;;;;;;14.48;4.47;;;;;;;-0.01;86.71;100617.69;5039072;28;20021;-74
2022/04/01 07:47:32;;;;;;;16.33;4.57;;;;;;;0.00;85.86;100619.44;5050488;28;20021;-74
2022/04/01 07:49:59;;;;;;;14.75;4.32;;;;;;;0.02;85.57;100619.38;5052372;28;20025;-74
2022/04/01 07:52:25;;;;;;;12.00;3.72;;;;;;;0.03;86.15;100629.00;5049794;28;20472;-73
2022/04/01 07:54:50;;;;;;;12.60;3.97;;;;;;;0.01;85.65;100621.13;5050616;28;20041;-73
2022/04/01 07:57:17;;;;;;;13.63;4.10;;;;;;;-0.01;85.22;100633.53;5050526;28;20064;-73
2022/04/01 07:59:44;;;;;;;12.98;3.95;;;;;;;0.01;85.43;100626.41;5052463;28;20044;-74
2022/04/01 08:02:09;;;;;;;12.45;3.88;;;;;;;0.02;86.07;100637.88;5052598;28;20033;-75
2022/04/01 08:04:35;;;;;;;16.13;4.72;;;;;;;0.02;86.21;100640.50;5051877;28;20623;-77
2022/04/01 08:07:00;;;;;;;15.82;4.93;;;;;;;0.02;86.22;100632.59;5049245;28;20065;-75
2022/04/01 08:09:26;;;;;;;11.27;3.75;;;;;;;0.04;86.09;100641.31;5052116;28;20032;-74
2022/04/01 08:11:53;;;;;;;14.30;4.13;;;;;;;0.04;86.21;100650.09;5051721;28;20036;-73
2022/04/01 08:14:18;;;;;;;11.95;3.90;;;;;;;0.06;86.26;100650.94;5051924;28;20100;-73
2022/04/01 08:16:45;;;;;;;14.43;3.72;;;;;;;0.08;87.04;100654.38;5050997;28;20456;-73
2022/04/01 08:19:10;;;;;;;14.00;4.20;;;;;;;0.06;85.70;100653.56;5051980;28;20029;-73
2022/04/01 08:21:36;;;;;;;15.65;4.80;;;;;;;0.07;86.46;100657.06;5051756;28;20033;-73
2022/04/01 08:24:02;;;;;;;12.82;3.88;;;;;;;0.07;86.11;100665.00;5032131;28;20021;-73
2022/04/01 08:26:28;;;;;;;13.38;3.88;;;;;;;0.08;86.65;100661.44;5049042;28;20579;-73
2022/04/01 08:28:53;;;;;;;13.63;3.63;;;;;;;0.08;85.76;100669.38;5050926;28;20111;-73
2022/04/01 08:31:20;;;;;;;11.07;3.42;;;;;;;0.12;86.00;100673.66;5049829;28;20025;-73
2022/04/01 08:33:46;;;;;;;12.48;3.70;;;;;;;0.11;85.49;100674.56;5049968;28;20029;-73
2022/04/01 08:36:13;;;;;;;12.80;3.90;;;;;;;0.13;86.56;100678.00;5051357;28;20408;-73
2022/04/01 08:38:38;;;;;;;14.68;4.28;;;;;;;0.15;85.98;100676.19;5050796;28;20025;-73
2022/04/01 08:41:03;;;;;;;13.77;4.32;;;;;;;0.17;85.43;100696.34;5051343;28;20021;-73
2022/04/01 08:43:31;;;;;;;11.23;3.55;;;;;;;0.19;85.51;100698.97;5042401;28;20071;-73
2022/04/01 08:45:58;;;;;;;14.30;3.80;;;;;;;0.20;85.11;100700.66;5040503;28;20434;-73
2022/04/01 08:48:26;;;;;;;10.35;3.13;;;;;;;0.23;84.22;100700.56;5049220;28;20468;-73
2022/04/01 08:50:51;;;;;;;14.35;4.10;;;;;;;0.23;83.15;100708.50;5048629;28;20037;-73
2022/04/01 08:53:17;;;;;;;11.32;3.53;;;;;;;0.25;83.78;100711.97;5049526;28;20074;-73
2022/04/01 08:55:47;;;;;;;9.27;3.25;;;;;;;0.24;83.12;100712.88;5049674;28;20029;-73
2022/04/01 08:58:13;;;;;;;9.27;2.97;;;;;;;0.25;83.08;100713.72;5050590;28;20048;-73
2022/04/01 09:00:38;;;;;;;10.93;3.20;;;;;;;0.26;82.84;100732.19;5049906;28;20056;-73
2022/04/01 09:03:08;;;;;;;9.98;2.92;;;;;;;0.29;84.12;100726.81;5050427;28;20423;-73
2022/04/01 09:05:34;;;;;;;9.35;2.58;;;;;;;0.35;84.23;100723.09;5048065;28;20036;-73
2022/04/01 09:08:07;;;;;;;9.95;3.33;;;;;;;0.38;82.72;100733.59;5050079;28;20053;-72
2022/04/01 09:10:57;;;;;;;12.30;3.30;;;;;;;0.40;82.89;100733.53;5049235;28;20033;-72
2022/04/01 09:13:25;;;;;;;8.25;2.97;;;;;;;0.40;82.54;100733.53;5045961;28;20059;-73
2022/04/01 09:15:51;;;;;;;11.00;3.42;;;;;;;0.44;83.41;100737.78;5050444;28;20154;-73
2022/04/01 09:18:32;;;;;;;10.15;3.60;;;;;;;0.47;83.76;100740.31;5049259;28;20503;-72
2022/04/01 09:20:58;;;;;;;10.65;3.42;;;;;;;0.48;83.30;100742.94;5050003;28;20110;-71
2022/04/01 09:23:24;;;;;;;12.27;3.40;;;;;;;0.52;83.58;100751.63;5049614;28;20087;-72
2022/04/01 09:25:53;;;;;;;10.85;3.38;;;;;;;0.53;83.56;100742.78;5047936;28;20404;-73
2022/04/01 09:28:27;;;;;;;12.90;3.30;;;;;;;0.57;83.74;100752.34;5049350;28;20029;-73
2022/04/01 09:31:09;;;;;;;11.02;3.28;;;;;;;0.61;83.88;100751.31;5047260;28;20495;-73
2022/04/01 09:33:45;;;;;;;9.85;3.17;;;;;;;0.62;83.03;100754.84;5049078;28;20821;-73
2022/04/01 09:36:13;;;;;;;11.63;3.15;;;;;;;0.63;82.67;100752.13;5049906;28;20419;-73
2022/04/01 09:38:39;;;;;;;10.52;3.13;;;;;;;0.67;83.07;100761.72;5049910;28;20083;-73
2022/04/01 09:41:06;;;;;;;11.25;3.30;;;;;;;0.67;82.91;100753.78;5049958;28;20029;-73
2022/04/01 09:43:38;;;;;;;14.20;3.38;;;;;;;0.69;83.33;100756.34;5040955;28;20025;-73
2022/04/01 09:46:06;;;;;;;12.07;3.35;;;;;;;0.73;83.98;100767.69;5040467;28;20025;-73
2022/04/01 09:48:39;;;;;;;7.88;2.53;;;;;;;0.76;83.06;100772.88;5049332;28;20295;-73
2022/04/01 09:51:08;;;;;;;8.30;2.50;;;;;;;0.80;82.34;100763.91;5048888;28;20052;-73
2022/04/01 09:53:33;;;;;;;10.30;3.08;;;;;;;0.82;82.21;100768.25;5050063;28;20071;-73
2022/04/01 09:55:59;;;;;;;11.85;2.90;;;;;;;0.84;81.67;100766.41;5050157;28;20060;-73
2022/04/01 09:58:25;;;;;;;9.38;3.15;;;;;;;0.84;81.01;100761.13;5050071;28;20376;-73
2022/04/01 10:00:52;;;;;;;10.10;2.60;;;;;;;0.85;82.17;100773.44;5048491;28;20032;-73
2022/04/01 10:03:19;;;;;;;7.80;2.72;;;;;;;0.85;81.71;100768.13;5049434;28;20400;-73
2022/04/01 10:05:45;;;;;;;6.95;2.35;;;;;;;0.84;82.19;100770.84;5041310;28;20025;-73
2022/04/01 10:08:12;;;;;;;6.15;2.53;;;;;;;0.84;81.57;100771.69;5049644;28;20028;-73
2022/04/01 10:10:39;;;;;;;8.23;2.67;;;;;;;0.86;82.43;100769.88;5050390;28;20559;-73
2022/04/01 10:13:21;;;;;;;8.00;2.83;;;;;;;0.84;81.76;100776.97;5049101;28;20098;-73
2022/04/01 10:15:47;;;;;;;11.38;2.95;;;;;;;0.82;83.20;100773.53;5049606;28;20060;-73
2022/04/01 10:18:15;;;;;;;8.10;2.30;;;;;;;0.84;82.77;100774.34;5049466;28;20029;-73
2022/04/01 10:20:40;;;;;;;6.28;2.35;;;;;;;0.82;82.29;100778.84;5050425;28;20041;-73
2022/04/01 10:23:11;;;;;;;4.47;2.03;;;;;;;0.81;82.43;100781.53;5047032;28;20450;-73
2022/04/01 10:26:16;;;;;;;9.63;2.88;;;;;;;0.81;82.64;100777.09;5044927;28;20079;-73
2022/04/01 10:28:45;;;;;;;5.88;2.20;;;;;;;0.79;82.41;100781.59;5041507;28;20462;-73
2022/04/01 10:31:14;;;;;;;8.07;2.22;;;;;;;0.82;83.17;100778.84;5044472;28;20116;-73
2022/04/01 10:33:39;;;;;;;8.50;2.45;;;;;;;0.86;83.20;100776.94;5044510;28;20021;-73
2022/04/01 10:36:15;;;;;;;9.30;2.30;;;;;;;0.91;82.38;100787.34;5044963;28;20144;-73
2022/04/01 10:38:40;;;;;;;7.15;2.38;;;;;;;0.90;82.50;100783.00;5046059;28;20025;-73
2022/04/01 10:41:12;;;;;;;10.45;3.08;;;;;;;0.92;82.10;100784.66;5047544;28;20044;-73
2022/04/01 10:43:42;;;;;;;10.05;2.60;;;;;;;0.95;83.21;100784.56;5039180;28;20710;-73
2022/04/01 10:46:12;;;;;;;;;;;;;;;1.02;82.88;100791.34;5039134;28;20136;-73
2022/04/01 10:51:38;;;;;;;9.52;2.90;;;;;;;1.04;81.09;100794.84;5048653;28;20091;-73
2022/04/01 10:54:12;;;;;;;9.80;3.03;;;;;;;1.08;82.88;100789.44;5048435;28;20028;-73
2022/04/01 10:56:39;;;;;;;9.50;3.15;;;;;;;1.09;82.33;100799.97;5048780;28;20062;-73
2022/04/01 10:59:27;;;;;;;9.35;2.92;;;;;;;1.14;82.39;100794.50;5049106;28;20430;-73
2022/04/01 11:01:52;;;;;;;11.05;2.97;;;;;;;1.15;81.08;100797.09;5043702;28;20052;-73
2022/04/01 11:04:18;;;;;;;12.48;3.40;;;;;;;1.16;81.62;100804.13;5049560;28;20488;-73
2022/04/01 11:06:57;;;;;;;13.27;3.20;;;;;;;1.20;81.66;100799.56;5046794;28;20138;-73
2022/04/01 11:09:39;;;;;;;13.13;3.55;;;;;;;1.21;81.46;100810.09;5048396;28;20025;-73
2022/04/01 11:12:17;;;;;;;10.52;3.78;;;;;;;1.22;80.60;100813.63;5048995;28;20496;-73
2022/04/01 11:15:10;;;;;;;13.32;4.13;;;;;;;1.22;79.95;100803.06;5048960;28;20648;-73
2022/04/01 11:17:38;;;;;;;13.93;4.13;;;;;;;1.22;78.25;100813.63;5048075;28;20123;-73
2022/04/01 11:20:21;;;;;;;12.57;3.92;;;;;;;1.21;77.87;100809.25;5048770;28;20084;-73
2022/04/01 11:23:00;;;;;;;10.80;3.95;;;;;;;1.23;77.66;100815.38;5049188;28;20029;-73
2022/04/01 11:25:27;;;;;;;13.45;4.30;;;;;;;1.24;78.18;100827.69;5048312;28;20028;-73
2022/04/01 11:28:14;;;;;;;13.52;4.22;;;;;;;1.26;79.41;100823.22;5049094;28;20044;-73
2022/04/01 11:30:51;;;;;;;10.75;3.72;;;;;;;1.27;79.94;100827.56;5047857;28;20092;-73
2022/04/01 11:33:19;;;;;;;11.55;3.75;;;;;;;1.28;79.87;100821.34;5047791;28;20033;-73
2022/04/01 11:35:49;;;;;;;13.73;4.18;;;;;;;1.30;80.33;100835.41;5047147;28;20037;-73
2022/04/01 11:38:26;;;;;;;13.73;4.22;;;;;;;1.32;79.97;100822.13;5036845;28;20201;-73
2022/04/01 11:40:55;;;;;;;10.80;3.72;;;;;;;1.31;80.00;100823.91;5036605;28;20078;-73
2022/04/01 11:43:22;;;;;;;13.57;4.40;;;;;;;1.32;80.21;100830.09;5037503;28;20499;-73